createdAt,value
2022-11-16T00:00:10.719Z,22.70
2022-11-16T00:02:58.632Z,21.60
2022-11-16T00:05:28.592Z,20.80
2022-11-16T00:07:59.395Z,20.80
2022-11-16T00:10:29.370Z,20.40
2022-11-16T00:12:57.381Z,20.90
2022-11-16T00:15:25.378Z,20.80
2022-11-16T00:17:53.326Z,21.40
2022-11-16T00:20:21.358Z,21.10
2022-11-16T00:22:49.363Z,20.40
2022-11-16T00:25:17.361Z,22.10
2022-11-16T00:27:45.348Z,19.90
2022-11-16T00:30:14.569Z,20.80
2022-11-16T00:32:42.565Z,21.90
2022-11-16T00:35:11.249Z,20.80
2022-11-16T00:37:39.288Z,22.80
2022-11-16T00:40:08.982Z,20.50
2022-11-16T00:42:36.974Z,20.70
2022-11-16T00:45:07.067Z,19.00
2022-11-16T00:47:35.135Z,20.80
2022-11-16T00:50:03.239Z,23.10
2022-11-16T00:52:32.215Z,21.30
2022-11-16T00:55:01.144Z,21.90
2022-11-16T00:57:29.148Z,23.00
2022-11-16T00:59:57.115Z,23.30
2022-11-16T01:02:25.098Z,21.40
2022-11-16T01:04:53.102Z,19.60
2022-11-16T01:07:21.172Z,20.30
2022-11-16T01:09:49.691Z,22.20
2022-11-16T01:12:17.712Z,19.30
2022-11-16T01:14:47.993Z,22.20
2022-11-16T01:17:16.027Z,18.90
2022-11-16T01:19:44.085Z,17.90
2022-11-16T01:22:12.131Z,20.40
2022-11-16T01:24:40.217Z,20.40
2022-11-16T01:27:08.274Z,20.10
2022-11-16T01:29:37.652Z,19.80
2022-11-16T01:32:07.659Z,18.90
2022-11-16T01:34:37.103Z,21.80
2022-11-16T01:37:05.211Z,19.20
2022-11-16T01:39:33.246Z,19.00
2022-11-16T01:42:01.309Z,21.10
2022-11-16T01:44:32.091Z,19.10
2022-11-16T01:47:06.635Z,19.90
2022-11-16T01:52:12.813Z,17.40
2022-11-16T01:54:45.585Z,20.20
2022-11-16T01:57:20.711Z,21.90
2022-11-16T01:59:54.204Z,20.60
2022-11-16T02:02:23.217Z,19.70
2022-11-16T02:04:56.024Z,19.20
2022-11-16T02:07:26.937Z,22.10
2022-11-16T02:10:21.101Z,21.00
2022-11-16T02:15:56.229Z,19.90
2022-11-16T02:18:53.733Z,22.80
2022-11-16T02:21:46.392Z,20.90
2022-11-16T02:24:34.035Z,18.60
2022-11-16T02:27:23.934Z,20.70
2022-11-16T02:29:56.719Z,20.50
2022-11-16T02:32:34.949Z,19.20
2022-11-16T02:35:19.386Z,21.60
2022-11-16T02:37:57.499Z,20.70
2022-11-16T02:40:30.971Z,21.70
2022-11-16T02:43:09.290Z,23.00
2022-11-16T02:45:42.990Z,22.40
2022-11-16T02:48:20.149Z,24.40
2022-11-16T02:50:52.896Z,21.80
2022-11-16T02:53:25.230Z,23.30
2022-11-16T02:55:53.323Z,21.60
2022-11-16T02:58:25.360Z,23.00
2022-11-16T03:01:07.805Z,23.80
2022-11-16T03:03:47.057Z,24.50
2022-11-16T03:06:27.374Z,26.30
2022-11-16T03:09:03.790Z,27.20
2022-11-16T03:12:00.012Z,26.50
2022-11-16T03:15:02.271Z,28.90
2022-11-16T03:17:42.182Z,28.20
2022-11-16T03:20:27.106Z,27.20
2022-11-16T03:23:02.394Z,31.50
2022-11-16T03:25:40.176Z,30.20
2022-11-16T03:28:36.898Z,31.90
2022-11-16T03:31:14.603Z,31.80
2022-11-16T03:33:52.947Z,32.60
2022-11-16T03:36:31.535Z,30.90
2022-11-16T03:39:05.338Z,32.50
2022-11-16T03:41:38.203Z,30.80
2022-11-16T03:44:09.017Z,33.30
2022-11-16T03:46:38.740Z,34.10
2022-11-16T03:49:07.575Z,33.80
2022-11-16T03:51:36.265Z,35.80
2022-11-16T03:54:05.303Z,35.10
2022-11-16T03:56:33.071Z,33.20
2022-11-16T03:59:00.976Z,33.60
2022-11-16T04:01:29.179Z,34.70
2022-11-16T04:03:57.359Z,35.00
2022-11-16T04:06:44.200Z,33.90
2022-11-16T04:09:24.027Z,37.00
2022-11-16T04:12:10.468Z,34.50
2022-11-16T04:14:58.185Z,33.80
2022-11-16T04:17:46.692Z,35.30
2022-11-16T04:20:34.944Z,36.80
2022-11-16T04:23:31.207Z,35.90
2022-11-16T04:26:00.657Z,35.00
2022-11-16T04:28:32.072Z,36.80
2022-11-16T04:31:23.406Z,35.00
2022-11-16T04:34:11.492Z,32.20
2022-11-16T04:36:58.083Z,33.80
2022-11-16T04:39:25.815Z,34.70
2022-11-16T04:42:12.169Z,34.00
2022-11-16T04:44:58.926Z,31.50
2022-11-16T04:47:27.750Z,33.10
2022-11-16T04:49:55.735Z,32.90
2022-11-16T04:52:23.668Z,32.30
2022-11-16T04:54:51.840Z,30.40
2022-11-16T04:57:19.552Z,33.70
2022-11-16T04:59:47.339Z,32.60
2022-11-16T05:02:16.519Z,32.80
2022-11-16T05:04:45.464Z,35.40
2022-11-16T05:07:15.551Z,33.20
2022-11-16T05:09:47.813Z,31.10
2022-11-16T05:12:26.114Z,33.60
2022-11-16T05:14:56.020Z,34.50
2022-11-16T05:17:27.230Z,35.30
2022-11-16T05:20:13.858Z,35.00
2022-11-16T05:22:43.643Z,34.90
2022-11-16T05:25:12.726Z,35.40
2022-11-16T05:27:40.556Z,37.00
2022-11-16T05:30:11.363Z,36.40
2022-11-16T05:32:39.101Z,33.60
2022-11-16T05:35:08.437Z,35.70
2022-11-16T05:37:36.500Z,34.40
2022-11-16T05:40:05.825Z,35.90
2022-11-16T05:42:33.558Z,37.70
2022-11-16T05:45:02.674Z,34.80
2022-11-16T05:47:30.454Z,38.70
2022-11-16T05:49:58.181Z,35.90
2022-11-16T05:52:26.170Z,36.70
2022-11-16T05:54:54.145Z,36.20
2022-11-16T05:57:22.132Z,37.20
2022-11-16T05:59:51.155Z,40.00
2022-11-16T06:02:19.147Z,37.40
2022-11-16T06:04:48.306Z,40.40
2022-11-16T06:07:16.078Z,39.80
2022-11-16T06:09:45.218Z,41.20
2022-11-16T06:12:14.890Z,41.60
2022-11-16T06:14:43.106Z,39.90
2022-11-16T06:17:14.667Z,40.40
2022-11-16T06:19:43.695Z,40.30
2022-11-16T06:22:11.380Z,44.00
2022-11-16T06:24:41.778Z,49.40
2022-11-16T06:27:09.709Z,52.30
2022-11-16T06:29:37.437Z,52.50
2022-11-16T06:32:06.379Z,49.30
2022-11-16T06:34:34.317Z,53.20
2022-11-16T06:37:02.236Z,60.50
2022-11-16T06:39:30.180Z,65.50
2022-11-16T06:41:57.919Z,69.20
2022-11-16T06:44:26.228Z,72.80
2022-11-16T06:46:53.952Z,65.30
2022-11-16T06:49:21.870Z,55.80
2022-11-16T06:51:49.584Z,55.10
2022-11-16T06:54:17.494Z,59.80
2022-11-16T06:56:45.434Z,51.80
2022-11-16T06:59:13.355Z,46.40
2022-11-16T07:01:43.500Z,45.50
2022-11-16T07:04:12.790Z,48.70
2022-11-16T07:06:41.695Z,51.90
2022-11-16T07:09:11.254Z,45.30
2022-11-16T07:11:39.173Z,47.00
2022-11-16T07:14:08.758Z,45.80
2022-11-16T07:16:38.335Z,48.70
2022-11-16T07:19:07.945Z,43.50
2022-11-16T07:21:38.833Z,48.50
2022-11-16T07:24:08.590Z,46.70
2022-11-16T07:26:36.334Z,49.00
2022-11-16T07:29:04.149Z,52.00
2022-11-16T07:31:33.723Z,48.50
2022-11-16T07:34:03.230Z,50.00
2022-11-16T07:36:30.953Z,56.10
2022-11-16T07:38:58.691Z,56.30
2022-11-16T07:41:26.641Z,57.90
2022-11-16T07:43:54.519Z,60.20
2022-11-16T07:49:16.651Z,63.50
2022-11-16T07:51:46.558Z,64.40
2022-11-16T07:54:16.602Z,60.20
2022-11-16T07:56:44.556Z,63.70
2022-11-16T07:59:12.582Z,64.00
2022-11-16T08:01:40.479Z,62.60
2022-11-16T08:04:10.200Z,57.80
2022-11-16T08:06:38.229Z,58.60
2022-11-16T08:09:06.167Z,61.50
2022-11-16T08:11:34.128Z,60.80
2022-11-16T08:14:02.313Z,61.40
2022-11-16T08:16:30.151Z,64.20
2022-11-16T08:18:57.848Z,58.20
2022-11-16T08:21:25.586Z,54.90
2022-11-16T08:23:58.668Z,58.40
2022-11-16T08:26:28.785Z,56.20
2022-11-16T08:28:58.226Z,58.10
2022-11-16T08:31:29.993Z,55.10
2022-11-16T08:34:01.476Z,52.60
2022-11-16T08:36:30.978Z,53.00
2022-11-16T08:38:58.830Z,45.60
2022-11-16T08:41:28.346Z,41.80
2022-11-16T08:44:01.045Z,42.00
2022-11-16T08:46:30.568Z,39.50
2022-11-16T08:48:59.873Z,39.00
2022-11-16T08:51:27.837Z,38.30
2022-11-16T08:54:01.739Z,37.60
2022-11-16T08:56:31.418Z,38.10
2022-11-16T08:59:01.298Z,38.30
2022-11-16T09:01:32.583Z,32.90
2022-11-16T09:04:02.287Z,33.40
2022-11-16T09:06:30.390Z,33.20
2022-11-16T09:08:58.490Z,32.80
2022-11-16T09:11:28.243Z,35.00
2022-11-16T09:13:59.043Z,32.30
2022-11-16T09:16:29.712Z,30.70
2022-11-16T09:18:59.424Z,32.80
2022-11-16T09:21:30.363Z,32.40
2022-11-16T09:24:00.081Z,32.20
2022-11-16T09:26:28.019Z,34.00
2022-11-16T09:28:59.973Z,35.00
2022-11-16T09:31:35.886Z,39.60
2022-11-16T09:34:04.087Z,39.90
2022-11-16T09:36:31.851Z,37.50
2022-11-16T09:39:29.035Z,38.40
2022-11-16T09:42:18.205Z,40.50
2022-11-16T09:44:52.132Z,38.00
2022-11-16T09:47:24.965Z,43.90
2022-11-16T09:50:02.695Z,38.30
2022-11-16T09:53:02.344Z,40.70
2022-11-16T09:55:52.751Z,39.60
2022-11-16T09:58:36.448Z,39.70
2022-11-16T10:01:21.452Z,38.30
2022-11-16T10:03:55.924Z,42.50
2022-11-16T10:06:38.128Z,41.60
2022-11-16T10:09:11.151Z,37.90
2022-11-16T10:11:45.735Z,37.10
2022-11-16T10:14:22.546Z,33.00
2022-11-16T10:16:57.279Z,34.30
2022-11-16T10:19:44.143Z,34.50
2022-11-16T10:23:06.342Z,33.80
2022-11-16T10:25:46.724Z,34.60
2022-11-16T10:28:30.553Z,31.80
2022-11-16T10:33:37.303Z,29.50
2022-11-16T10:36:16.513Z,32.40
2022-11-16T10:38:46.065Z,33.10
2022-11-16T10:41:13.693Z,31.80
2022-11-16T10:43:44.896Z,30.10
2022-11-16T10:46:40.028Z,29.70
2022-11-16T10:50:02.488Z,28.40
2022-11-16T10:52:30.294Z,27.80
2022-11-16T10:54:58.283Z,25.80
2022-11-16T10:57:57.877Z,26.60
2022-11-16T11:00:41.334Z,26.00
2022-11-16T11:03:12.013Z,25.80
2022-11-16T11:05:55.311Z,23.60
2022-11-16T11:08:30.912Z,24.50
2022-11-16T11:11:25.398Z,27.20
2022-11-16T11:14:14.258Z,26.50
2022-11-16T11:16:44.184Z,25.20
2022-11-16T11:19:29.904Z,28.30
2022-11-16T11:22:01.967Z,31.50
2022-11-16T11:24:47.243Z,26.30
2022-11-16T11:27:37.020Z,26.20
2022-11-16T11:30:20.761Z,27.80
2022-11-16T11:32:54.602Z,26.00
2022-11-16T11:35:31.429Z,27.00
2022-11-16T11:38:07.980Z,27.40
2022-11-16T11:40:39.701Z,29.10
2022-11-16T11:43:24.158Z,28.30
2022-11-16T11:46:07.040Z,29.40
2022-11-16T11:48:49.654Z,30.40
2022-11-16T11:51:27.745Z,28.30
2022-11-16T11:54:00.904Z,25.20
2022-11-16T11:56:34.268Z,26.30
2022-11-16T11:59:05.183Z,27.60
2022-11-16T12:01:35.901Z,26.90
2022-11-16T12:04:23.402Z,29.90
2022-11-16T12:07:23.649Z,25.60
2022-11-16T12:10:16.841Z,25.40
2022-11-16T12:13:02.098Z,29.20
2022-11-16T12:15:56.383Z,25.50
2022-11-16T12:18:54.765Z,24.80
2022-11-16T12:22:07.033Z,24.80
2022-11-16T12:25:00.026Z,25.90
2022-11-16T12:27:37.108Z,25.50
2022-11-16T12:30:11.838Z,23.30
2022-11-16T12:33:10.411Z,23.60
2022-11-16T12:35:41.436Z,22.20
2022-11-16T12:38:36.762Z,21.20
2022-11-16T12:41:48.876Z,24.50
2022-11-16T12:44:44.186Z,26.20
2022-11-16T12:47:32.558Z,23.30
2022-11-16T12:50:29.455Z,21.50
2022-11-16T12:53:22.552Z,21.70
2022-11-16T12:56:05.755Z,21.40
2022-11-16T12:58:55.520Z,22.10
2022-11-16T13:01:38.334Z,16.60
2022-11-16T13:04:17.069Z,18.50
2022-11-16T13:07:11.593Z,16.00
2022-11-16T13:09:49.270Z,15.80
2022-11-16T13:12:23.522Z,17.90
2022-11-16T13:14:56.429Z,17.00
2022-11-16T13:17:40.717Z,16.20
2022-11-16T13:20:20.960Z,13.40
2022-11-16T13:23:05.121Z,13.80
2022-11-16T13:26:02.786Z,14.90
2022-11-16T13:28:37.293Z,13.00
2022-11-16T13:31:29.102Z,16.30
2022-11-16T13:34:03.284Z,16.80
2022-11-16T13:36:38.999Z,16.60
2022-11-16T13:39:44.164Z,20.20
2022-11-16T13:42:15.002Z,18.20
2022-11-16T13:44:50.284Z,15.00
2022-11-16T13:47:28.386Z,16.20
2022-11-16T13:50:03.467Z,14.10
2022-11-16T13:54:03.792Z,15.00
2022-11-16T13:55:57.898Z,15.70
2022-11-16T13:58:29.493Z,16.10
2022-11-16T14:01:03.616Z,15.30
2022-11-16T14:03:39.790Z,14.60
2022-11-16T14:06:30.259Z,16.10
2022-11-16T14:09:00.610Z,19.00
2022-11-16T14:11:42.096Z,20.20
2022-11-16T14:14:13.622Z,22.80
2022-11-16T14:16:51.937Z,22.30
2022-11-16T14:19:49.070Z,17.70
2022-11-16T14:22:48.918Z,16.70
2022-11-16T14:25:38.096Z,10.80
2022-11-16T14:28:25.165Z,14.60
2022-11-16T14:31:31.060Z,13.20
2022-11-16T14:34:01.490Z,15.30
2022-11-16T14:36:44.908Z,16.20
2022-11-16T14:39:44.227Z,18.30
2022-11-16T14:42:23.354Z,14.50
2022-11-16T14:44:59.836Z,16.30
2022-11-16T14:47:33.811Z,15.00
2022-11-16T14:50:01.810Z,17.00
2022-11-16T14:52:36.876Z,18.30
2022-11-16T14:55:09.732Z,21.60
2022-11-16T14:57:37.719Z,18.90
2022-11-16T15:00:22.791Z,17.60
2022-11-16T15:03:00.921Z,18.90
2022-11-16T15:05:37.948Z,18.60
2022-11-16T15:08:24.858Z,22.80
2022-11-16T15:10:54.677Z,21.60
2022-11-16T15:13:26.154Z,22.20
2022-11-16T15:16:14.673Z,17.30
2022-11-16T15:19:02.782Z,19.50
2022-11-16T15:21:30.802Z,18.40
2022-11-16T15:26:46.560Z,16.50
2022-11-16T15:29:22.781Z,17.10
2022-11-16T15:31:52.657Z,17.60
2022-11-16T15:34:22.369Z,17.80
2022-11-16T15:36:50.279Z,18.00
2022-11-16T15:39:24.383Z,19.10
2022-11-16T15:42:00.440Z,15.80
2022-11-16T15:44:34.023Z,23.00
2022-11-16T15:47:04.532Z,23.00
2022-11-16T15:49:51.496Z,19.90
2022-11-16T15:52:51.031Z,14.70
2022-11-16T15:55:35.916Z,18.10
2022-11-16T15:58:15.060Z,14.50
2022-11-16T16:00:48.510Z,13.70
2022-11-16T16:03:28.297Z,15.80
2022-11-16T16:05:58.263Z,13.90
2022-11-16T16:08:32.393Z,22.60
2022-11-16T16:11:28.763Z,22.10
2022-11-16T16:14:03.678Z,15.40
2022-11-16T16:16:41.500Z,17.20
2022-11-16T16:19:37.768Z,19.50
2022-11-16T16:22:23.300Z,16.90
2022-11-16T16:24:51.099Z,16.40
2022-11-16T16:27:26.800Z,21.80
2022-11-16T16:29:58.349Z,19.50
2022-11-16T16:32:30.418Z,16.30
2022-11-16T16:35:02.376Z,18.00
2022-11-16T16:37:33.810Z,21.30
2022-11-16T16:40:03.426Z,21.30
2022-11-16T16:42:31.426Z,24.60
2022-11-16T16:45:02.325Z,24.30
2022-11-16T16:47:32.910Z,24.20
2022-11-16T16:50:00.974Z,21.90
2022-11-16T16:52:30.411Z,24.60
2022-11-16T16:54:59.951Z,27.70
2022-11-16T16:57:27.690Z,22.40
2022-11-16T16:59:55.560Z,22.50
2022-11-16T17:02:27.357Z,25.50
2022-11-16T17:04:55.619Z,23.70
2022-11-16T17:07:23.866Z,25.90
2022-11-16T17:09:53.189Z,24.30
2022-11-16T17:12:20.934Z,24.60
2022-11-16T17:14:53.783Z,22.60
2022-11-16T17:17:27.157Z,26.10
2022-11-16T17:19:55.107Z,22.40
2022-11-16T17:22:23.177Z,21.60
2022-11-16T17:24:51.212Z,19.70
2022-11-16T17:27:19.308Z,21.80
2022-11-16T17:29:47.023Z,18.60
2022-11-16T17:32:17.798Z,17.50
2022-11-16T17:34:45.515Z,18.00
2022-11-16T17:37:15.553Z,25.20
2022-11-16T17:39:43.249Z,23.00
2022-11-16T17:42:11.208Z,22.60
2022-11-16T17:44:39.150Z,23.70
2022-11-16T17:47:09.239Z,21.70
2022-11-16T17:49:37.212Z,24.00
2022-11-16T17:52:05.160Z,27.10
2022-11-16T17:54:33.196Z,25.80
2022-11-16T17:57:00.990Z,34.60
2022-11-16T17:59:30.023Z,28.70
2022-11-16T18:01:58.331Z,25.00
2022-11-16T18:04:26.128Z,24.60
2022-11-16T18:06:54.365Z,19.30
2022-11-16T18:09:25.908Z,19.00
2022-11-16T18:11:56.334Z,20.10
2022-11-16T18:14:24.334Z,18.10
2022-11-16T18:16:52.300Z,16.80
2022-11-16T18:19:22.126Z,13.90
2022-11-16T18:21:50.209Z,13.90
2022-11-16T18:24:18.088Z,17.20
2022-11-16T18:26:47.586Z,15.30
2022-11-16T18:29:20.266Z,13.60
2022-11-16T18:31:48.326Z,15.60
2022-11-16T18:34:18.541Z,13.80
2022-11-16T18:36:50.081Z,16.80
2022-11-16T18:39:19.707Z,22.60
2022-11-16T18:41:54.548Z,22.30
2022-11-16T18:44:23.145Z,24.20
2022-11-16T18:46:51.107Z,24.30
2022-11-16T18:49:18.915Z,22.60
2022-11-16T18:51:46.647Z,16.60
2022-11-16T18:54:14.431Z,26.20
2022-11-16T18:56:42.120Z,16.80
2022-11-16T18:59:10.106Z,15.90
2022-11-16T19:01:38.013Z,16.80
2022-11-16T19:04:07.935Z,15.90
2022-11-16T19:06:35.813Z,13.60
2022-11-16T19:09:07.916Z,15.80
2022-11-16T19:11:37.830Z,17.80
2022-11-16T19:14:08.259Z,16.90
2022-11-16T19:16:43.397Z,23.60
2022-11-16T19:19:16.715Z,20.30
2022-11-16T19:21:44.657Z,17.90
2022-11-16T19:24:12.436Z,18.30
2022-11-16T19:26:40.414Z,19.90
2022-11-16T19:29:10.035Z,17.40
2022-11-16T19:31:37.918Z,22.00
2022-11-16T19:34:13.098Z,16.70
2022-11-16T19:36:40.945Z,19.30
2022-11-16T19:39:10.573Z,15.60
2022-11-16T19:41:38.491Z,15.20
2022-11-16T19:44:06.261Z,17.00
2022-11-16T19:46:34.631Z,17.70
2022-11-16T19:49:04.614Z,17.80
2022-11-16T19:51:34.657Z,14.20
2022-11-16T19:54:03.343Z,11.80
2022-11-16T19:56:33.472Z,13.50
2022-11-16T19:59:01.758Z,13.50
2022-11-16T20:01:32.987Z,13.70
2022-11-16T20:04:03.692Z,13.70
2022-11-16T20:06:35.199Z,14.60
2022-11-16T20:09:16.313Z,16.20
2022-11-16T20:11:44.118Z,17.50
2022-11-16T20:14:12.142Z,18.50
2022-11-16T20:16:46.379Z,19.60
2022-11-16T20:19:16.292Z,23.10
2022-11-16T20:21:45.104Z,20.00
2022-11-16T20:24:16.465Z,16.70
2022-11-16T20:26:48.132Z,20.50
2022-11-16T20:29:19.263Z,16.70
2022-11-16T20:31:49.638Z,16.80
2022-11-16T20:34:23.771Z,15.30
2022-11-16T20:36:51.555Z,16.80
2022-11-16T20:39:21.426Z,14.60
2022-11-16T20:41:51.209Z,18.70
2022-11-16T20:44:22.538Z,19.80
2022-11-16T20:46:52.745Z,15.80
2022-11-16T20:49:21.129Z,18.90
2022-11-16T20:51:52.372Z,23.80
2022-11-16T20:54:20.148Z,26.10
2022-11-16T20:56:52.575Z,22.90
2022-11-16T20:59:20.503Z,16.60
2022-11-16T21:01:54.082Z,25.80
2022-11-16T21:06:49.826Z,16.10
2022-11-16T21:09:24.111Z,21.00
2022-11-16T21:12:10.591Z,21.20
2022-11-16T21:14:38.449Z,20.60
2022-11-16T21:17:06.479Z,18.80
2022-11-16T21:19:34.290Z,23.70
2022-11-16T21:22:02.183Z,35.10
2022-11-16T21:24:32.433Z,28.50
2022-11-16T21:27:00.549Z,29.50
2022-11-16T21:29:28.690Z,26.30
2022-11-16T21:31:56.411Z,29.90
2022-11-16T21:34:26.284Z,27.90
2022-11-16T21:36:54.056Z,27.90
2022-11-16T21:39:21.876Z,29.60
2022-11-16T21:41:49.586Z,17.60
2022-11-16T21:44:17.517Z,25.30
2022-11-16T21:46:45.247Z,26.80
2022-11-16T21:49:13.060Z,32.40
2022-11-16T21:51:40.791Z,22.10
2022-11-16T21:54:08.559Z,17.90
2022-11-16T21:56:36.305Z,25.00
2022-11-16T21:59:04.045Z,17.00
2022-11-16T22:01:51.821Z,16.60
2022-11-16T22:04:38.479Z,19.20
2022-11-16T22:07:25.048Z,16.00
2022-11-16T22:09:54.138Z,16.20
2022-11-16T22:12:22.133Z,11.50
2022-11-16T22:14:50.134Z,10.30
2022-11-16T22:17:18.328Z,10.10
2022-11-16T22:19:46.143Z,9.90
2022-11-16T22:22:14.092Z,6.60
2022-11-16T22:24:41.934Z,7.80
2022-11-16T22:27:09.812Z,10.20
2022-11-16T22:29:37.631Z,8.60
2022-11-16T22:32:05.705Z,15.20
2022-11-16T22:34:33.519Z,7.70
2022-11-16T22:37:01.412Z,12.10
2022-11-16T22:39:29.336Z,16.40
2022-11-16T22:41:57.237Z,14.10
2022-11-16T22:44:25.062Z,12.30
2022-11-16T22:46:52.900Z,8.60
2022-11-16T22:49:20.980Z,6.10
2022-11-16T22:51:48.753Z,6.10
2022-11-16T22:54:18.453Z,7.00
2022-11-16T22:56:46.301Z,9.50
2022-11-16T22:59:16.097Z,6.30
2022-11-16T23:01:43.904Z,8.40
2022-11-16T23:04:11.817Z,7.20
2022-11-16T23:06:39.892Z,8.00
2022-11-16T23:09:07.696Z,8.40
2022-11-16T23:11:54.597Z,11.60
2022-11-16T23:14:41.256Z,8.10
2022-11-16T23:17:09.343Z,4.50
2022-11-16T23:19:55.801Z,6.10
2022-11-16T23:22:42.536Z,5.20
2022-11-16T23:25:32.476Z,6.60
2022-11-16T23:28:17.831Z,5.40
2022-11-16T23:30:45.928Z,6.90
2022-11-16T23:33:15.610Z,7.40
2022-11-16T23:35:43.616Z,7.80
2022-11-16T23:38:11.633Z,8.30
2022-11-16T23:40:42.054Z,11.20
2022-11-16T23:43:31.251Z,14.50
2022-11-16T23:45:59.209Z,12.10
2022-11-16T23:48:27.192Z,11.10
2022-11-16T23:50:55.180Z,9.40
2022-11-16T23:53:23.277Z,12.30
2022-11-16T23:55:52.929Z,10.20
2022-11-16T23:58:20.667Z,14.10
